Time;durP1;ratioP1;P1;durP2;ratioP2;P2;SDS_P1;SDS_P2;PMS_P1;PMS_P2;Temp;Humidity;BMP_temperature;BMP_pressure;BME280_temperature;BME280_humidity;BME280_pressure;Samples;Min_cycle;Max_cycle;Signal;HPM_P1;HPM_P2
2023/03/09 00:01:20;;;;;;;32.33;16.63;;;;;;;-0.33;100.00;99010.38;5134059;27;20107;-53
2023/03/09 00:03:48;;;;;;;33.33;17.83;;;;;;;-0.31;100.00;99014.56;5132074;27;20830;-51
2023/03/09 00:06:18;;;;;;;30.38;16.45;;;;;;;-0.34;100.00;99022.47;5135509;27;20054;-50
2023/03/09 00:08:46;;;;;;;30.92;17.15;;;;;;;-0.36;100.00;99014.78;5134536;27;20512;-49
2023/03/09 00:11:15;;;;;;;30.70;16.20;;;;;;;-0.35;100.00;99013.03;5132475;27;20051;-49
2023/03/09 00:13:44;;;;;;;31.30;17.10;;;;;;;-0.32;100.00;99005.13;5130596;27;20043;-48
2023/03/09 00:16:14;;;;;;;33.85;17.35;;;;;;;-0.41;100.00;98993.53;5133861;27;20082;-49
2023/03/09 00:18:44;;;;;;;35.13;17.27;;;;;;;-0.36;100.00;99001.03;5135429;27;20057;-49
2023/03/09 00:21:14;;;;;;;32.28;16.30;;;;;;;-0.36;100.00;98995.88;5134786;27;20047;-49
2023/03/09 00:23:43;;;;;;;30.65;16.90;;;;;;;-0.34;100.00;98983.72;5129919;27;20107;-52
2023/03/09 00:26:11;;;;;;;30.85;16.65;;;;;;;-0.30;100.00;98982.66;5131746;27;20096;-53
2023/03/09 00:28:40;;;;;;;30.80;16.00;;;;;;;-0.35;100.00;98979.47;5130222;27;20046;-53
2023/03/09 00:31:08;;;;;;;33.55;16.60;;;;;;;-0.35;100.00;98975.13;5134630;27;20528;-49
2023/03/09 00:33:37;;;;;;;33.28;17.05;;;;;;;-0.40;100.00;98995.16;5131310;27;20495;-50
2023/03/09 00:36:07;;;;;;;36.95;17.45;;;;;;;-0.43;100.00;99002.25;5132195;27;20051;-51
2023/03/09 00:38:35;;;;;;;37.00;17.80;;;;;;;-0.43;100.00;99005.66;5131629;27;20088;-50
2023/03/09 00:41:04;;;;;;;34.50;17.92;;;;;;;-0.40;100.00;99010.66;5133617;27;20542;-50
2023/03/09 00:43:32;;;;;;;33.58;17.60;;;;;;;-0.43;100.00;99000.50;5134658;27;20051;-50
2023/03/09 00:46:00;;;;;;;32.00;16.83;;;;;;;-0.39;100.00;98990.84;5134316;27;20051;-52
2023/03/09 00:48:28;;;;;;;35.13;18.35;;;;;;;-0.44;100.00;99018.66;5134723;27;20465;-50
2023/03/09 00:50:56;;;;;;;36.40;18.50;;;;;;;-0.44;100.00;99028.97;5133871;27;20050;-49
2023/03/09 00:53:26;;;;;;;36.40;18.42;;;;;;;-0.45;100.00;99046.25;5131704;27;20493;-51
2023/03/09 00:55:54;;;;;;;35.22;18.02;;;;;;;-0.40;100.00;99041.66;5134237;27;20049;-51
2023/03/09 00:58:22;;;;;;;32.42;16.67;;;;;;;-0.33;100.00;99028.47;5134656;27;20080;-52
2023/03/09 01:00:50;;;;;;;34.15;17.40;;;;;;;-0.41;100.00;99028.81;5134532;27;20078;-50
2023/03/09 01:03:18;;;;;;;32.17;17.17;;;;;;;-0.43;100.00;99043.59;5134774;27;20047;-49
2023/03/09 01:05:47;;;;;;;31.65;16.13;;;;;;;-0.44;100.00;99044.47;5134601;27;20103;-52
2023/03/09 01:08:18;;;;;;;31.67;15.88;;;;;;;-0.41;100.00;99046.91;5134430;27;20112;-49
2023/03/09 01:10:48;;;;;;;31.63;16.27;;;;;;;-0.41;100.00;99040.00;5131896;27;20645;-51
2023/03/09 01:13:16;;;;;;;33.15;18.13;;;;;;;-0.36;100.00;99043.19;5130201;27;20047;-51
2023/03/09 01:15:44;;;;;;;32.83;15.52;;;;;;;-0.24;100.00;99046.09;5134204;27;20543;-50
2023/03/09 01:18:13;;;;;;;30.95;16.73;;;;;;;-0.29;100.00;99040.31;5134103;27;20050;-50
2023/03/09 01:20:41;;;;;;;30.60;16.02;;;;;;;-0.32;100.00;99043.06;5132316;27;20074;-50
2023/03/09 01:23:09;;;;;;;31.75;15.98;;;;;;;-0.37;100.00;99038.94;5130782;27;20100;-50
2023/03/09 01:25:37;;;;;;;31.00;15.82;;;;;;;-0.30;100.00;99031.75;5130776;27;20039;-52
2023/03/09 01:28:06;;;;;;;32.58;17.00;;;;;;;-0.38;100.00;99046.78;5129924;27;20050;-49
2023/03/09 01:30:35;;;;;;;33.25;16.58;;;;;;;-0.40;100.00;99056.34;5130706;27;20043;-50
2023/03/09 01:33:03;;;;;;;31.55;16.20;;;;;;;-0.33;100.00;99074.97;5130829;27;20506;-50
2023/03/09 01:35:32;;;;;;;32.53;17.02;;;;;;;-0.39;100.00;99061.44;5132829;27;20719;-52
2023/03/09 01:38:00;;;;;;;31.15;15.85;;;;;;;-0.33;100.00;99072.38;5133666;27;20035;-50
2023/03/09 01:40:28;;;;;;;32.35;16.77;;;;;;;-0.33;100.00;99090.47;5130328;27;20054;-48
2023/03/09 01:42:57;;;;;;;32.20;15.82;;;;;;;-0.33;100.00;99101.63;5129238;27;20122;-51
2023/03/09 01:46:03;;;;;;;32.97;16.88;;;;;;;-0.32;100.00;99082.63;5130424;27;20088;-52
2023/03/09 01:48:33;;;;;;;33.05;16.05;;;;;;;-0.31;100.00;99066.22;5133377;27;20071;-52
2023/03/09 01:51:01;;;;;;;29.92;15.55;;;;;;;-0.30;100.00;99049.81;5132766;27;20482;-51
2023/03/09 01:53:29;;;;;;;31.83;16.95;;;;;;;-0.32;100.00;99064.56;5128230;27;20041;-54
2023/03/09 01:55:59;;;;;;;29.80;14.88;;;;;;;-0.35;100.00;99083.63;5132292;27;20062;-48
2023/03/09 01:58:31;;;;;;;32.03;16.42;;;;;;;-0.28;100.00;99091.91;5132313;27;20091;-51
2023/03/09 02:00:59;;;;;;;32.05;16.35;;;;;;;-0.32;100.00;99094.72;5133393;27;20039;-50
2023/03/09 02:03:33;;;;;;;33.38;16.25;;;;;;;-0.34;100.00;99107.72;5130534;27;20078;-48
2023/03/09 02:06:06;;;;;;;28.23;14.25;;;;;;;-0.28;100.00;99097.09;5131626;27;20039;-49
2023/03/09 02:08:42;;;;;;;32.00;16.77;;;;;;;-0.38;100.00;99104.44;5131050;27;20047;-51
2023/03/09 02:11:14;;;;;;;32.85;15.65;;;;;;;-0.33;100.00;99103.38;5130548;27;20478;-50
2023/03/09 02:13:47;;;;;;;35.00;16.75;;;;;;;-0.40;100.00;99115.75;5133334;27;20039;-49
2023/03/09 02:16:15;;;;;;;;;;;;;;;-0.35;100.00;99116.38;5134132;28;20051;-53
2023/03/09 02:18:46;;;;;;;32.80;16.70;;;;;;;-0.31;100.00;99112.75;5133518;27;20278;-51
2023/03/09 02:21:26;;;;;;;32.47;15.35;;;;;;;-0.31;100.00;99110.16;5133430;28;20058;-52
2023/03/09 02:24:04;;;;;;;30.23;15.70;;;;;;;-0.38;100.00;99108.78;5132978;27;20146;-51
2023/03/09 02:26:38;;;;;;;32.08;15.68;;;;;;;-0.33;100.00;99126.63;5133256;27;20489;-49
2023/03/09 02:29:08;;;;;;;33.35;16.38;;;;;;;-0.34;100.00;99115.47;5133179;28;20050;-49
2023/03/09 02:31:36;;;;;;;37.13;17.77;;;;;;;-0.37;100.00;99125.94;5133179;27;20074;-53
2023/03/09 02:34:04;;;;;;;32.60;16.65;;;;;;;-0.40;100.00;99106.25;5133342;27;20493;-52
2023/03/09 02:36:33;;;;;;;34.50;17.67;;;;;;;-0.35;100.00;99099.13;5132750;28;20035;-51
2023/03/09 02:39:09;;;;;;;35.97;16.77;;;;;;;-0.36;100.00;99089.69;5130002;27;20085;-51
2023/03/09 02:41:37;;;;;;;35.00;17.52;;;;;;;-0.28;100.00;99098.84;5131071;28;20066;-52
2023/03/09 02:44:07;;;;;;;35.30;16.83;;;;;;;-0.40;100.00;99110.59;5132877;27;20055;-51
2023/03/09 02:46:35;;;;;;;35.83;17.35;;;;;;;-0.40;100.00;99132.06;5133199;27;20482;-49
2023/03/09 02:49:04;;;;;;;35.50;16.52;;;;;;;-0.38;100.00;99124.28;5132494;27;20043;-52
2023/03/09 02:51:32;;;;;;;37.25;17.48;;;;;;;-0.38;100.00;99138.03;5129718;28;20042;-52
2023/03/09 02:54:00;;;;;;;37.78;18.10;;;;;;;-0.41;100.00;99158.00;5131138;27;20035;-51
2023/03/09 02:56:28;;;;;;;37.95;18.42;;;;;;;-0.41;100.00;99163.16;5133233;27;20043;-49
2023/03/09 02:58:56;;;;;;;36.17;17.65;;;;;;;-0.41;100.00;99160.56;5132425;27;20031;-50
2023/03/09 03:01:26;;;;;;;36.17;17.83;;;;;;;-0.37;100.00;99167.25;5132328;27;20130;-53
2023/03/09 03:03:54;;;;;;;34.25;17.50;;;;;;;-0.38;100.00;99163.84;5132657;27;20047;-48
2023/03/09 03:06:22;;;;;;;36.53;17.95;;;;;;;-0.33;100.00;99160.22;5131304;27;20071;-51
2023/03/09 03:08:50;;;;;;;32.70;17.60;;;;;;;-0.32;100.00;99160.16;5131717;27;20039;-52
2023/03/09 03:11:18;;;;;;;37.33;17.75;;;;;;;-0.35;100.00;99162.88;5135715;27;20133;-49
2023/03/09 03:13:46;;;;;;;34.03;17.73;;;;;;;-0.32;100.00;99162.72;5136516;27;20497;-49
2023/03/09 03:16:14;;;;;;;38.25;17.00;;;;;;;-0.35;100.00;99157.72;5136569;27;20067;-49
2023/03/09 03:18:44;;;;;;;33.90;17.02;;;;;;;-0.35;100.00;99160.28;5135322;27;20777;-51
2023/03/09 03:21:12;;;;;;;34.47;17.45;;;;;;;-0.32;100.00;99160.16;5133791;27;20051;-50
2023/03/09 03:23:40;;;;;;;33.92;17.40;;;;;;;-0.30;100.00;99173.00;5134492;27;20079;-49
2023/03/09 03:26:09;;;;;;;31.42;16.27;;;;;;;-0.30;100.00;99175.56;5136393;27;20071;-49
2023/03/09 03:28:37;;;;;;;32.42;16.77;;;;;;;-0.26;100.00;99188.28;5135235;27;20451;-52
2023/03/09 03:31:05;;;;;;;34.22;17.35;;;;;;;-0.33;100.00;99183.47;5133319;27;20070;-49
2023/03/09 03:33:34;;;;;;;32.17;16.75;;;;;;;-0.30;100.00;99184.19;5131387;27;20067;-51
2023/03/09 03:36:03;;;;;;;33.47;15.90;;;;;;;-0.29;100.00;99192.75;5134822;27;20513;-52
2023/03/09 03:38:32;;;;;;;31.63;15.82;;;;;;;-0.29;100.00;99205.69;5136196;27;20047;-52
2023/03/09 03:41:00;;;;;;;31.77;16.60;;;;;;;-0.28;100.00;99213.34;5133107;27;20051;-48
2023/03/09 03:43:28;;;;;;;34.78;16.55;;;;;;;-0.29;100.00;99214.25;5132157;27;20122;-50
2023/03/09 03:45:56;;;;;;;29.48;15.32;;;;;;;-0.30;100.00;99212.59;5134596;27;20055;-50
2023/03/09 03:48:24;;;;;;;32.63;16.35;;;;;;;-0.32;100.00;99222.16;5132911;27;20512;-51
2023/03/09 03:50:52;;;;;;;31.05;15.52;;;;;;;-0.29;100.00;99221.19;5133610;27;20177;-50
2023/03/09 03:53:21;;;;;;;33.03;16.50;;;;;;;-0.26;100.00;99227.06;5132389;27;20047;-49
2023/03/09 03:55:50;;;;;;;33.72;16.40;;;;;;;-0.26;100.00;99227.06;5135838;27;20502;-49
2023/03/09 03:58:18;;;;;;;29.70;16.13;;;;;;;-0.22;100.00;99223.41;5135778;27;20355;-50
2023/03/09 04:00:49;;;;;;;34.65;16.77;;;;;;;-0.25;100.00;99236.47;5135687;27;20047;-47
2023/03/09 04:03:17;;;;;;;31.02;15.85;;;;;;;-0.24;100.00;99227.81;5133930;27;20405;-50
2023/03/09 04:05:46;;;;;;;31.40;16.25;;;;;;;-0.19;100.00;99233.59;5132438;27;20066;-49
2023/03/09 04:08:14;;;;;;;30.25;15.45;;;;;;;-0.24;100.00;99245.06;5135497;27;20045;-51
2023/03/09 04:10:43;;;;;;;30.02;15.93;;;;;;;-0.27;100.00;99235.72;5134313;27;20071;-52
2023/03/09 04:13:14;;;;;;;33.33;16.20;;;;;;;-0.29;100.00;99234.91;5131363;27;20473;-53
2023/03/09 04:15:42;;;;;;;30.95;16.23;;;;;;;-0.26;100.00;99247.72;5133768;27;20039;-51
2023/03/09 04:18:10;;;;;;;31.63;16.42;;;;;;;-0.28;100.00;99244.34;5134657;27;20043;-52
2023/03/09 04:20:40;;;;;;;31.95;16.70;;;;;;;-0.23;100.00;99245.00;5134249;27;20039;-53
2023/03/09 04:23:09;;;;;;;30.02;14.57;;;;;;;-0.23;100.00;99245.00;5134115;27;20129;-51
2023/03/09 04:25:37;;;;;;;33.80;17.15;;;;;;;-0.26;100.00;99257.19;5131576;27;20440;-51
2023/03/09 04:28:07;;;;;;;33.10;16.23;;;;;;;-0.22;100.00;99269.06;5131148;27;20128;-52
2023/03/09 04:30:35;;;;;;;33.75;16.58;;;;;;;-0.20;100.00;99262.94;5131609;27;20138;-49
2023/03/09 04:33:05;;;;;;;33.80;17.80;;;;;;;-0.20;100.00;99262.09;5132095;27;20061;-49
2023/03/09 04:35:33;;;;;;;33.50;17.70;;;;;;;-0.18;100.00;99273.19;5132569;27;20043;-48
2023/03/09 04:38:04;;;;;;;33.30;16.15;;;;;;;-0.18;100.00;99271.47;5134999;27;20371;-52
2023/03/09 04:40:32;;;;;;;35.05;17.10;;;;;;;-0.19;100.00;99277.53;5134895;27;20039;-51
2023/03/09 04:43:00;;;;;;;33.45;16.58;;;;;;;-0.23;100.00;99283.75;5133647;27;20378;-50
2023/03/09 04:45:30;;;;;;;33.10;16.15;;;;;;;-0.21;100.00;99286.25;5131819;27;20396;-52
2023/03/09 04:47:59;;;;;;;34.88;16.85;;;;;;;-0.21;100.00;99289.69;5132171;27;20043;-51
2023/03/09 04:50:28;;;;;;;35.78;16.52;;;;;;;-0.14;100.00;99302.31;5130626;27;20055;-49
2023/03/09 04:52:57;;;;;;;32.58;17.05;;;;;;;-0.12;100.00;99309.09;5131324;27;20134;-51
2023/03/09 04:55:25;;;;;;;32.45;17.20;;;;;;;-0.11;100.00;99318.53;5133507;27;20074;-51
2023/03/09 04:57:53;;;;;;;35.88;16.60;;;;;;;0.01;100.00;99317.13;5129220;27;20448;-49
2023/03/09 05:00:23;;;;;;;31.38;15.55;;;;;;;-0.05;100.00;99330.34;5131798;27;20772;-47
2023/03/09 05:02:52;;;;;;;34.67;16.77;;;;;;;-0.07;100.00;99332.16;5133234;27;20517;-51
2023/03/09 05:05:23;;;;;;;;;;;;;;;-0.06;100.00;99329.50;5133466;27;20035;-51
2023/03/09 05:07:51;;;;;;;35.47;16.40;;;;;;;-0.10;100.00;99337.47;5134374;27;19946;-50
2023/03/09 05:10:19;;;;;;;31.45;15.75;;;;;;;-0.07;100.00;99350.25;5134367;27;20050;-50
2023/03/09 05:12:47;;;;;;;32.13;16.65;;;;;;;-0.08;100.00;99349.41;5128233;27;20070;-49
2023/03/09 05:15:15;;;;;;;31.77;16.35;;;;;;;-0.10;100.00;99346.03;5131141;27;20059;-51
2023/03/09 05:17:44;;;;;;;32.08;16.77;;;;;;;-0.07;100.00;99350.25;5129168;27;20093;-47
2023/03/09 05:20:14;;;;;;;33.42;15.88;;;;;;;-0.04;100.00;99350.94;5132612;27;20082;-49
2023/03/09 05:22:42;;;;;;;32.88;16.63;;;;;;;0.00;100.00;99351.66;5134031;27;20075;-49
2023/03/09 05:25:10;;;;;;;31.83;15.98;;;;;;;0.02;100.00;99357.59;5132298;27;20463;-50
2023/03/09 05:27:38;;;;;;;32.58;16.35;;;;;;;-0.01;100.00;99362.91;5134054;27;20069;-49
2023/03/09 05:30:07;;;;;;;34.13;17.27;;;;;;;0.03;100.00;99355.84;5133295;27;20050;-51
2023/03/09 05:32:35;;;;;;;34.13;16.17;;;;;;;0.02;100.00;99343.84;5131742;27;20059;-51
2023/03/09 05:35:04;;;;;;;30.15;16.55;;;;;;;-0.04;100.00;99332.00;5130497;27;20066;-52
2023/03/09 05:37:34;;;;;;;33.15;17.85;;;;;;;-0.11;100.00;99326.31;5130433;27;20055;-48
2023/03/09 05:40:04;;;;;;;33.38;16.98;;;;;;;-0.02;100.00;99328.44;5130531;27;20806;-51
2023/03/09 05:42:33;;;;;;;32.33;16.27;;;;;;;-0.04;100.00;99324.25;5130214;27;20141;-49
2023/03/09 05:45:03;;;;;;;36.88;16.52;;;;;;;-0.06;100.00;99323.50;5133715;27;20474;-51
2023/03/09 05:47:31;;;;;;;30.80;15.75;;;;;;;-0.08;100.00;99333.06;5133851;27;20049;-52
2023/03/09 05:49:59;;;;;;;34.53;17.20;;;;;;;-0.10;100.00;99347.81;5132415;27;20045;-52
2023/03/09 05:52:28;;;;;;;31.67;16.45;;;;;;;-0.04;100.00;99360.44;5133790;27;20121;-51
2023/03/09 05:54:57;;;;;;;34.80;16.95;;;;;;;-0.10;100.00;99356.38;5133502;27;20043;-50
2023/03/09 05:57:25;;;;;;;35.55;17.10;;;;;;;-0.10;100.00;99368.47;5130879;27;20043;-50
2023/03/09 05:59:53;;;;;;;32.78;16.55;;;;;;;-0.10;100.00;99356.38;5130528;27;20050;-51
2023/03/09 06:02:22;;;;;;;30.60;15.68;;;;;;;-0.05;100.00;99358.78;5130278;27;20065;-51
2023/03/09 06:04:51;;;;;;;31.20;16.10;;;;;;;-0.09;100.00;99368.41;5132953;27;20039;-50
2023/03/09 06:07:19;;;;;;;31.92;15.60;;;;;;;-0.05;100.00;99361.38;5133547;27;20067;-52
2023/03/09 06:09:47;;;;;;;31.48;16.17;;;;;;;-0.06;100.00;99360.50;5132319;27;20051;-52
2023/03/09 06:12:20;;;;;;;32.33;16.90;;;;;;;-0.03;100.00;99373.31;5128988;27;20081;-52
2023/03/09 06:14:49;;;;;;;32.63;15.93;;;;;;;-0.08;100.00;99369.25;5132357;27;20085;-52
2023/03/09 06:17:18;;;;;;;29.17;14.40;;;;;;;-0.07;100.00;99366.63;5133362;27;20363;-51
2023/03/09 06:19:46;;;;;;;33.95;15.55;;;;;;;-0.08;100.00;99374.41;5133328;27;20047;-52
2023/03/09 06:22:14;;;;;;;30.35;14.88;;;;;;;-0.07;100.00;99376.94;5133326;27;20043;-52
2023/03/09 06:24:43;;;;;;;32.95;15.85;;;;;;;-0.10;100.00;99376.22;5131076;27;20134;-52
2023/03/09 06:27:11;;;;;;;31.35;15.77;;;;;;;-0.15;100.00;99368.69;5129222;27;20054;-53
2023/03/09 06:29:40;;;;;;;34.08;16.38;;;;;;;-0.13;100.00;99384.97;5129799;27;20084;-49
2023/03/09 06:32:08;;;;;;;32.25;16.60;;;;;;;-0.15;100.00;99376.44;5133254;27;20482;-50
2023/03/09 06:34:36;;;;;;;30.35;15.40;;;;;;;-0.11;100.00;99379.72;5132311;27;20043;-50
2023/03/09 06:37:05;;;;;;;31.80;15.73;;;;;;;-0.11;100.00;99388.34;5130084;27;20047;-49
2023/03/09 06:39:33;;;;;;;30.80;15.23;;;;;;;-0.04;100.00;99399.22;5129454;28;20047;-49
2023/03/09 06:42:01;;;;;;;30.05;15.40;;;;;;;-0.03;100.00;99406.94;5129169;27;20436;-51
2023/03/09 06:44:29;;;;;;;32.53;16.67;;;;;;;-0.08;100.00;99414.03;5137210;27;20126;-53
2023/03/09 06:46:59;;;;;;;30.63;15.43;;;;;;;-0.06;100.00;99427.72;5137187;27;20616;-53
2023/03/09 06:49:27;;;;;;;31.27;15.10;;;;;;;0.03;100.00;99430.81;5137233;27;20051;-58
2023/03/09 06:51:55;;;;;;;28.42;14.18;;;;;;;0.00;100.00;99436.97;5137317;27;20045;-58
2023/03/09 06:54:23;;;;;;;29.00;14.88;;;;;;;0.08;100.00;99439.19;5136835;27;20760;-58
2023/03/09 06:56:51;;;;;;;31.13;15.20;;;;;;;0.11;100.00;99442.50;5133518;27;20074;-58
2023/03/09 06:59:19;;;;;;;29.65;15.60;;;;;;;0.09;100.00;99452.06;5134072;27;20051;-58
2023/03/09 07:01:47;;;;;;;29.25;15.02;;;;;;;0.08;100.00;99463.34;5133584;27;20453;-58
2023/03/09 07:04:17;;;;;;;30.08;14.98;;;;;;;0.06;100.00;99457.38;5134089;27;20090;-58
2023/03/09 07:06:45;;;;;;;30.38;16.05;;;;;;;0.10;100.00;99466.66;5133913;27;20397;-58
2023/03/09 07:09:13;;;;;;;27.10;14.60;;;;;;;0.15;100.00;99480.25;5134169;27;20456;-57
2023/03/09 07:11:42;;;;;;;30.30;15.02;;;;;;;0.14;100.00;99478.56;5136834;27;20048;-57
2023/03/09 07:14:10;;;;;;;31.35;15.32;;;;;;;0.09;100.00;99483.09;5136735;27;20431;-57
2023/03/09 07:16:38;;;;;;;29.98;15.52;;;;;;;0.12;100.00;99485.56;5135298;27;20047;-57
2023/03/09 07:19:06;;;;;;;32.33;15.25;;;;;;;0.17;100.00;99491.34;5136566;27;20035;-57
2023/03/09 07:21:35;;;;;;;31.63;16.52;;;;;;;0.20;100.00;99494.72;5134134;27;20119;-57
2023/03/09 07:24:03;;;;;;;30.67;14.85;;;;;;;0.17;100.00;99503.44;5133676;27;20059;-57
2023/03/09 07:26:31;;;;;;;27.77;14.45;;;;;;;0.12;100.00;99511.41;5133289;27;20050;-57
2023/03/09 07:29:01;;;;;;;34.25;16.13;;;;;;;0.20;100.00;99518.00;5133052;27;20043;-57
2023/03/09 07:31:29;;;;;;;31.05;15.18;;;;;;;0.21;100.00;99517.09;5133305;27;20100;-57
2023/03/09 07:33:57;;;;;;;28.27;15.63;;;;;;;0.23;100.00;99515.25;5135733;27;20383;-56
2023/03/09 07:36:28;;;;;;;29.10;15.05;;;;;;;0.24;100.00;99528.13;5136316;27;20447;-57
2023/03/09 07:38:57;;;;;;;28.65;14.90;;;;;;;0.27;100.00;99532.31;5136229;27;20051;-56
2023/03/09 07:41:26;;;;;;;28.25;14.73;;;;;;;0.29;100.00;99544.28;5136061;27;20047;-56
2023/03/09 07:43:54;;;;;;;29.90;15.68;;;;;;;0.28;100.00;99540.00;5136097;27;20051;-56
2023/03/09 07:46:22;;;;;;;30.95;16.10;;;;;;;0.29;100.00;99551.22;5136059;27;20051;-57
2023/03/09 07:48:51;;;;;;;31.33;14.77;;;;;;;0.31;100.00;99541.63;5133231;27;20485;-56
2023/03/09 07:51:23;;;;;;;30.95;15.52;;;;;;;0.32;100.00;99538.16;5132303;27;20629;-57
2023/03/09 07:53:51;;;;;;;29.02;14.93;;;;;;;0.36;100.00;99542.28;5136064;27;20497;-56
2023/03/09 07:56:20;;;;;;;30.58;15.65;;;;;;;0.42;100.00;99548.94;5134033;27;20051;-57
2023/03/09 07:58:48;;;;;;;30.67;15.70;;;;;;;0.49;100.00;99548.59;5130994;27;20073;-57
2023/03/09 08:01:18;;;;;;;30.70;15.55;;;;;;;0.49;100.00;99547.75;5132725;27;20050;-57
2023/03/09 08:03:47;;;;;;;27.58;14.35;;;;;;;0.50;100.00;99550.28;5132661;27;20894;-57
2023/03/09 08:06:16;;;;;;;28.27;15.27;;;;;;;0.50;100.00;99552.88;5133014;27;20533;-57
2023/03/09 08:08:44;;;;;;;32.53;16.35;;;;;;;0.56;100.00;99554.34;5131561;27;20367;-52
2023/03/09 08:11:15;;;;;;;30.65;15.77;;;;;;;0.59;100.00;99555.97;5132560;27;20359;-50
2023/03/09 08:13:44;;;;;;;27.15;14.30;;;;;;;0.60;100.00;99568.81;5130001;27;20047;-53
2023/03/09 08:16:12;;;;;;;30.35;15.70;;;;;;;0.67;100.00;99577.16;5134627;27;20055;-55
2023/03/09 08:18:41;;;;;;;31.90;16.75;;;;;;;0.64;100.00;99585.03;5135516;27;20051;-53
2023/03/09 08:21:11;;;;;;;30.77;15.63;;;;;;;0.66;100.00;99593.59;5135121;27;20126;-53
2023/03/09 08:23:40;;;;;;;29.05;15.82;;;;;;;0.67;100.00;99590.94;5134882;27;20043;-51
2023/03/09 08:26:11;;;;;;;31.92;16.42;;;;;;;0.67;100.00;99584.94;5135264;27;20051;-51
2023/03/09 08:28:39;;;;;;;30.67;15.52;;;;;;;0.78;100.00;99579.28;5134637;27;20046;-52
2023/03/09 08:31:10;;;;;;;32.58;16.00;;;;;;;0.75;100.00;99569.91;5132032;27;20126;-53
2023/03/09 08:33:39;;;;;;;27.63;13.52;;;;;;;0.80;100.00;99580.84;5131714;27;20084;-49
2023/03/09 08:36:15;;;;;;;29.35;14.98;;;;;;;0.81;100.00;99587.72;5133621;27;20482;-54
2023/03/09 08:38:45;;;;;;;32.80;16.00;;;;;;;0.80;100.00;99598.16;5135024;27;20070;-52
2023/03/09 08:41:14;;;;;;;31.77;15.60;;;;;;;0.86;100.00;99605.66;5131839;27;20499;-52
2023/03/09 08:43:42;;;;;;;29.38;16.25;;;;;;;0.84;100.00;99605.69;5131229;27;20039;-50
2023/03/09 08:46:12;;;;;;;32.00;16.30;;;;;;;0.89;100.00;99594.34;5134899;27;20070;-52
2023/03/09 08:48:40;;;;;;;30.85;15.15;;;;;;;0.90;100.00;99608.94;5132727;27;20050;-51
2023/03/09 08:51:11;;;;;;;29.63;15.68;;;;;;;0.95;100.00;99622.50;5131920;27;20047;-52
2023/03/09 08:53:39;;;;;;;32.22;15.93;;;;;;;1.03;100.00;99625.59;5131112;27;20057;-52
2023/03/09 08:56:11;;;;;;;27.45;14.45;;;;;;;1.07;100.00;99615.97;5131332;27;20513;-52
2023/03/09 08:58:40;;;;;;;30.42;16.77;;;;;;;1.10;100.00;99608.88;5129777;27;20047;-52
2023/03/09 09:01:10;;;;;;;28.42;14.93;;;;;;;1.17;100.00;99614.59;5133306;27;20066;-50
2023/03/09 09:03:40;;;;;;;31.42;15.73;;;;;;;1.22;100.00;99622.19;5133364;27;20047;-51
2023/03/09 09:06:10;;;;;;;29.42;14.90;;;;;;;1.25;100.00;99627.22;5133346;27;20055;-50
2023/03/09 09:08:39;;;;;;;30.25;15.73;;;;;;;1.30;100.00;99635.63;5130596;27;20034;-49
2023/03/09 09:11:08;;;;;;;29.08;14.85;;;;;;;1.40;100.00;99652.41;5131523;27;20462;-51
2023/03/09 09:13:36;;;;;;;30.27;15.52;;;;;;;1.38;100.00;99658.56;5129490;27;20043;-48
2023/03/09 09:16:06;;;;;;;28.52;15.30;;;;;;;1.39;100.00;99663.72;5133620;27;20043;-48
2023/03/09 09:18:35;;;;;;;29.50;16.17;;;;;;;1.49;100.00;99661.53;5130838;27;20126;-49
2023/03/09 09:21:13;;;;;;;32.15;16.38;;;;;;;1.46;100.00;99646.97;5131309;27;20144;-53
2023/03/09 09:23:43;;;;;;;30.30;15.87;;;;;;;1.56;100.00;99643.94;5130386;27;20051;-52
2023/03/09 09:26:12;;;;;;;30.35;15.63;;;;;;;1.61;100.00;99647.13;5130907;27;20043;-53
2023/03/09 09:28:40;;;;;;;30.45;16.17;;;;;;;1.72;100.00;99644.03;5131333;27;20047;-53
2023/03/09 09:31:12;;;;;;;27.58;14.48;;;;;;;1.77;100.00;99640.34;5133649;27;20054;-51
2023/03/09 09:33:40;;;;;;;30.58;16.60;;;;;;;1.81;100.00;99647.06;5133138;27;20421;-52
2023/03/09 09:36:12;;;;;;;32.63;15.65;;;;;;;1.86;100.00;99647.66;5130854;27;20039;-50
2023/03/09 09:38:40;;;;;;;29.77;16.13;;;;;;;1.93;100.00;99650.78;5132487;27;20043;-52
2023/03/09 09:41:16;;;;;;;31.83;16.77;;;;;;;1.90;100.00;99656.13;5133703;27;20502;-51
2023/03/09 09:43:46;;;;;;;29.55;16.30;;;;;;;1.95;100.00;99661.09;5133935;27;20504;-50
2023/03/09 09:46:17;;;;;;;27.98;14.82;;;;;;;2.00;100.00;99664.31;5133707;27;20177;-51
2023/03/09 09:48:46;;;;;;;29.08;16.25;;;;;;;2.05;100.00;99669.28;5133071;27;20054;-50
2023/03/09 09:51:34;;;;;;;28.80;15.38;;;;;;;2.00;100.00;99672.09;5133697;27;20050;-51
2023/03/09 09:54:12;;;;;;;31.20;15.60;;;;;;;2.06;100.00;99681.31;5130458;27;20055;-48
2023/03/09 09:56:47;;;;;;;28.92;15.63;;;;;;;2.14;100.00;99690.44;5131547;27;20051;-53
2023/03/09 09:59:20;;;;;;;28.95;15.48;;;;;;;2.15;100.00;99688.66;5133392;27;20100;-51
2023/03/09 10:02:04;;;;;;;27.50;14.55;;;;;;;2.22;100.00;99684.84;5133455;27;20043;-50
2023/03/09 10:04:38;;;;;;;28.63;15.50;;;;;;;2.20;100.00;99686.69;5133823;27;20134;-48
2023/03/09 10:07:15;;;;;;;28.27;15.40;;;;;;;2.27;100.00;99674.25;5131978;27;20043;-53
2023/03/09 10:09:45;;;;;;;30.20;15.20;;;;;;;2.31;100.00;99671.44;5129523;27;20130;-48
2023/03/09 10:12:20;;;;;;;32.42;15.32;;;;;;;2.34;100.00;99683.41;5132446;27;20157;-49
2023/03/09 10:14:55;;;;;;;32.53;16.50;;;;;;;2.30;100.00;99684.47;5133336;27;20122;-52
2023/03/09 10:17:32;;;;;;;32.15;15.88;;;;;;;2.37;100.00;99688.44;5132336;27;20107;-51
2023/03/09 10:20:13;;;;;;;29.15;15.10;;;;;;;2.47;100.00;99692.28;5133429;27;20438;-49
2023/03/09 10:22:48;;;;;;;30.70;15.40;;;;;;;2.45;100.00;99698.47;5131933;28;20262;-53
2023/03/09 10:25:21;;;;;;;27.13;14.88;;;;;;;2.48;100.00;99704.34;5132625;27;20497;-53
2023/03/09 10:27:55;;;;;;;;;;;;;;;2.54;100.00;99708.38;5129359;27;20122;-52
2023/03/09 10:30:36;;;;;;;30.30;15.73;;;;;;;2.49;100.00;99703.41;5131458;27;19926;-51
2023/03/09 10:33:12;;;;;;;29.38;15.15;;;;;;;2.61;100.00;99690.75;5133264;27;20162;-49
2023/03/09 10:35:45;;;;;;;31.00;15.60;;;;;;;2.54;100.00;99704.03;5133049;27;20116;-52
2023/03/09 10:38:16;;;;;;;33.70;16.88;;;;;;;2.62;100.00;99711.44;5132970;27;20130;-49
2023/03/09 10:40:47;;;;;;;31.77;16.13;;;;;;;2.59;100.00;99715.94;5133079;28;20047;-52
2023/03/09 10:43:23;;;;;;;32.67;16.00;;;;;;;2.58;100.00;99704.72;5131215;27;20046;-50
2023/03/09 10:45:51;;;;;;;30.60;15.35;;;;;;;2.65;100.00;99713.03;5129572;27;20039;-50
2023/03/09 10:48:21;;;;;;;31.10;16.05;;;;;;;2.59;100.00;99706.41;5130227;27;20051;-50
2023/03/09 10:50:57;;;;;;;31.70;16.88;;;;;;;2.68;100.00;99705.09;5128499;28;20051;-51
2023/03/09 10:53:34;;;;;;;30.25;16.10;;;;;;;2.72;100.00;99701.41;5131005;27;20100;-51
2023/03/09 10:56:12;;;;;;;31.13;14.55;;;;;;;2.70;100.00;99711.06;5131633;28;20486;-52
2023/03/09 10:58:40;;;;;;;29.92;15.38;;;;;;;2.79;100.00;99713.16;5127916;27;20103;-51
2023/03/09 11:01:22;;;;;;;28.88;14.95;;;;;;;2.76;100.00;99708.13;5129922;27;20039;-52
2023/03/09 11:03:50;;;;;;;31.60;15.32;;;;;;;2.81;100.00;99718.28;5131362;27;20088;-51
2023/03/09 11:06:29;;;;;;;29.40;14.80;;;;;;;2.88;100.00;99707.50;5130050;27;20047;-49
2023/03/09 11:09:06;;;;;;;31.45;15.18;;;;;;;2.99;100.00;99711.31;5129611;27;20104;-51
2023/03/09 11:11:46;;;;;;;29.15;14.63;;;;;;;3.02;100.00;99691.22;5128222;27;20486;-49
2023/03/09 11:14:29;;;;;;;32.13;15.23;;;;;;;3.07;100.00;99691.00;5130799;27;20039;-51
2023/03/09 11:17:00;;;;;;;31.85;16.33;;;;;;;3.07;100.00;99696.19;5132806;27;20047;-51
2023/03/09 11:19:29;;;;;;;31.65;16.25;;;;;;;3.15;100.00;99693.16;5129529;27;20036;-53
2023/03/09 11:22:07;;;;;;;29.90;16.15;;;;;;;3.11;100.00;99695.09;5128288;28;20146;-51
2023/03/09 11:24:39;;;;;;;31.30;15.98;;;;;;;3.18;100.00;99709.44;5130826;28;20382;-50
2023/03/09 11:27:12;;;;;;;31.48;16.00;;;;;;;3.17;100.00;99706.94;5132730;27;20058;-52